Rechercher aéroport 
image banner adimage banner adimage banner ad
image banner ad

CN17 - Rady Childrens Hospital - San Diego

Situé à San Diego, United States

ICAO - CN17, IATA -

Données fournies par Airmate  

Information générale

Coordonnées: N32°47'55" W117°9'7"
Élévation : 445 feet MSL.
 
Voir autres Aéroports à California

Données opérationnelles

Special qualification required
Heure actuelle UTC:
Heure actuelle locale:
Météo à : KMYF - Montgomery-Gibbs Executive ( 2 km )
METAR: KMYF 262253Z 27007KT 7SM OVC008 21/18 A2995 RMK AO2 SLP137 T02110183
Voir NOTAMs / SUP AIP / TFR affectant cet aéroport [VIEW]
Fréquences de communication: [VIEW]

Pistes:

Coordonnées de l'aéroport

Adresse: San Diego United States

Vue satellite de CN17